createdAt,value
2022-09-06T01:29:34.008Z,18.70
2022-09-06T01:32:12.404Z,18.60
2022-09-06T04:14:42.196Z,18.60
2022-09-06T04:22:09.555Z,18.40
2022-09-06T04:24:39.061Z,18.20
2022-09-06T04:29:36.145Z,18.50
2022-09-06T04:32:06.018Z,18.50
2022-09-06T04:37:00.803Z,18.50
2022-09-06T04:39:28.078Z,18.40
2022-09-06T04:41:55.303Z,18.50
2022-09-06T05:16:21.764Z,17.50
2022-09-06T05:18:49.017Z,17.60
2022-09-06T05:21:18.721Z,17.60
2022-09-06T05:23:45.970Z,17.60
2022-09-06T05:26:13.192Z,17.60
2022-09-06T05:28:40.415Z,17.70
2022-09-06T05:31:24.886Z,20.30
2022-09-06T05:36:22.704Z,21.90
2022-09-06T05:38:53.754Z,24.30
2022-09-06T05:41:22.077Z,24.70
2022-09-06T05:53:43.552Z,29.10
2022-09-06T05:56:12.745Z,29.30
2022-09-06T05:58:40.240Z,29.80
2022-09-06T06:01:14.795Z,30.70
2022-09-06T06:03:42.769Z,31.10
2022-09-06T06:06:10.145Z,28.70
2022-09-06T12:19:50.440Z,30.20
2022-09-06T12:22:29.646Z,30.60
2022-09-06T12:24:58.234Z,30.70
2022-09-06T12:27:26.449Z,30.70
2022-09-06T12:29:58.501Z,30.80
2022-09-06T12:32:48.309Z,30.90
2022-09-06T12:38:15.091Z,31.30
2022-09-06T12:40:47.615Z,31.00
2022-09-06T12:43:17.436Z,31.10
2022-09-06T12:45:50.072Z,31.20
2022-09-06T12:48:29.677Z,31.30
2022-09-06T12:51:08.874Z,31.40
2022-09-06T12:53:36.296Z,31.50
2022-09-06T12:56:09.123Z,31.50
2022-09-06T12:58:36.930Z,31.40
2022-09-06T13:01:19.979Z,31.40
2022-09-06T13:04:11.324Z,31.20
2022-09-06T13:06:42.887Z,31.20
2022-09-06T13:09:17.572Z,31.10
2022-09-06T13:11:48.962Z,31.00
2022-09-06T13:14:26.957Z,31.00
2022-09-06T13:16:55.266Z,31.10
2022-09-06T13:19:34.745Z,31.10
2022-09-06T13:22:04.011Z,31.10
2022-09-06T13:24:44.639Z,31.10
2022-09-06T13:27:27.705Z,31.20
2022-09-06T13:29:57.484Z,31.20
2022-09-06T13:32:26.653Z,31.20
2022-09-06T13:34:54.463Z,31.20
2022-09-06T13:37:21.690Z,31.30
2022-09-06T13:39:48.962Z,31.30
2022-09-06T13:42:31.504Z,31.20
2022-09-06T13:45:16.730Z,31.30
2022-09-06T13:47:43.916Z,31.30
2022-09-06T13:50:11.314Z,31.20
2022-09-06T13:52:38.611Z,31.30
2022-09-06T13:55:06.398Z,31.30
2022-09-06T13:57:33.618Z,31.40
2022-09-06T14:00:00.973Z,31.40
2022-09-06T14:02:28.412Z,31.40
2022-09-06T14:04:55.707Z,31.40
2022-09-06T14:07:23.101Z,31.30
2022-09-06T14:09:50.424Z,31.30
2022-09-06T14:12:20.816Z,31.00
2022-09-06T14:14:48.054Z,31.20
2022-09-06T14:17:15.566Z,31.20
2022-09-06T14:19:42.868Z,31.30
2022-09-06T14:22:10.165Z,31.30
2022-09-06T14:24:37.616Z,31.30
2022-09-06T14:27:05.906Z,31.10
2022-09-06T14:29:33.698Z,31.10
2022-09-06T14:32:01.162Z,31.10
2022-09-06T14:34:28.620Z,31.10
2022-09-06T14:36:55.825Z,31.10
2022-09-06T14:39:23.052Z,31.20
2022-09-06T14:41:50.281Z,31.30
2022-09-06T14:44:17.544Z,31.40
2022-09-06T14:46:44.824Z,31.10
2022-09-06T14:49:12.308Z,31.20
2022-09-06T14:51:39.577Z,31.40
2022-09-06T14:54:12.520Z,31.40
2022-09-06T14:56:41.165Z,31.40
2022-09-06T14:59:08.863Z,31.20
2022-09-06T15:01:38.499Z,31.20
2022-09-06T15:04:08.634Z,31.20
2022-09-06T15:06:37.932Z,31.20
2022-09-06T15:09:05.224Z,31.10
2022-09-06T15:11:47.968Z,31.20
2022-09-06T15:14:23.694Z,31.30
2022-09-06T15:16:55.877Z,31.40
2022-09-06T15:19:28.400Z,31.40
2022-09-06T15:21:56.758Z,31.20
2022-09-06T15:24:24.318Z,31.10
2022-09-06T15:26:51.582Z,31.20
2022-09-06T15:29:18.772Z,30.90
2022-09-06T15:31:47.804Z,30.60
2022-09-06T15:34:15.090Z,30.70
2022-09-06T15:36:42.382Z,30.60
2022-09-06T15:39:09.719Z,30.60
2022-09-06T15:41:38.085Z,30.70
2022-09-06T15:44:09.772Z,30.80
2022-09-06T15:46:56.199Z,30.80
2022-09-06T15:49:29.166Z,30.60
2022-09-06T15:51:59.199Z,30.50
2022-09-06T15:54:27.604Z,30.70
2022-09-06T15:56:54.867Z,30.60
2022-09-06T15:59:22.186Z,30.50
2022-09-06T16:01:49.455Z,30.60
2022-09-06T16:04:16.771Z,30.70
2022-09-06T16:06:43.991Z,30.50
2022-09-06T16:09:13.522Z,30.20
2022-09-06T16:11:41.796Z,30.40
2022-09-06T16:14:11.964Z,30.20
2022-09-06T16:16:39.378Z,30.10
2022-09-06T16:19:07.367Z,30.00
2022-09-06T16:21:37.448Z,30.10
2022-09-06T16:24:07.310Z,30.20
2022-09-06T16:26:43.041Z,30.10
2022-09-06T16:29:12.532Z,29.90
2022-09-06T16:31:40.829Z,29.80
2022-09-06T16:34:12.411Z,29.80
2022-09-06T16:36:40.409Z,29.80
2022-09-06T16:39:08.530Z,29.80
2022-09-06T16:41:41.350Z,29.80
2022-09-06T16:44:09.839Z,29.90
2022-09-06T16:46:37.337Z,29.90
2022-09-06T16:49:04.678Z,29.90
2022-09-06T16:51:32.056Z,29.80
2022-09-06T16:54:00.523Z,29.70
2022-09-06T16:56:31.105Z,29.60
2022-09-06T16:59:00.747Z,29.60
2022-09-06T17:01:30.069Z,29.50
2022-09-06T17:03:57.821Z,29.30
2022-09-06T17:06:25.179Z,29.30
2022-09-06T17:08:52.450Z,29.20
2022-09-06T17:11:21.778Z,29.20
2022-09-06T17:13:50.752Z,29.10
2022-09-06T17:16:22.309Z,29.10
2022-09-06T17:18:51.178Z,29.00
2022-09-06T17:21:18.467Z,28.90
2022-09-06T17:23:45.738Z,28.90
2022-09-06T17:26:13.606Z,28.80
2022-09-06T17:28:41.161Z,28.80
2022-09-06T17:31:08.813Z,28.80
2022-09-06T17:33:36.596Z,28.70
2022-09-06T17:36:06.685Z,28.60
2022-09-06T17:38:34.442Z,28.60
2022-09-06T17:48:30.028Z,28.10
2022-09-06T17:51:05.533Z,28.30
2022-09-06T17:53:33.988Z,28.20
2022-09-06T18:51:04.065Z,26.20
2022-09-06T18:53:31.790Z,26.10
2022-09-06T18:55:59.427Z,26.10
2022-09-06T18:58:26.812Z,26.00
2022-09-06T19:01:01.164Z,25.90
2022-09-06T19:03:28.585Z,25.80
2022-09-06T19:05:55.949Z,25.70
2022-09-06T19:08:23.446Z,25.70
2022-09-06T19:11:03.089Z,25.60
2022-09-06T19:13:30.419Z,25.60
2022-09-06T19:15:58.428Z,25.60
2022-09-06T19:18:27.008Z,25.60
2022-09-06T19:21:05.665Z,25.60
2022-09-06T19:23:35.255Z,25.50
2022-09-06T19:26:05.750Z,25.50
2022-09-06T19:28:33.575Z,25.50
2022-09-06T19:31:08.613Z,25.40
2022-09-06T19:33:36.491Z,25.40
2022-09-06T19:36:11.652Z,25.30
2022-09-06T19:41:29.653Z,25.30
2022-09-06T19:43:58.170Z,25.20
2022-09-06T19:46:26.478Z,25.10
2022-09-06T19:48:54.937Z,25.00
2022-09-06T19:51:22.334Z,24.90
2022-09-06T19:53:52.078Z,24.90
2022-09-06T19:56:21.789Z,24.80
2022-09-06T19:58:54.494Z,24.80
2022-09-06T20:01:22.576Z,24.80
2022-09-06T20:03:53.927Z,24.70
2022-09-06T20:06:21.938Z,24.70
2022-09-06T20:08:55.104Z,24.60
2022-09-06T20:11:25.164Z,24.60
2022-09-06T20:13:52.731Z,24.50
2022-09-06T20:16:21.331Z,24.40
2022-09-06T23:17:13.575Z,23.20
2022-09-06T23:19:41.257Z,23.20
2022-09-06T23:22:08.655Z,22.70
2022-09-06T23:24:35.852Z,22.20
2022-09-06T23:27:03.255Z,21.60
2022-09-06T23:29:31.985Z,21.20
2022-09-06T23:31:59.222Z,21.00
2022-09-06T23:34:26.697Z,20.30
2022-09-06T23:36:53.946Z,20.30
2022-09-06T23:39:21.139Z,20.00
2022-09-06T23:41:48.411Z,19.90
2022-09-06T23:44:15.562Z,19.70
2022-09-06T23:46:42.873Z,19.60
2022-09-06T23:49:10.259Z,19.40
2022-09-06T23:51:37.648Z,19.40
2022-09-06T23:54:04.933Z,19.30
2022-09-06T23:56:32.695Z,19.30
2022-09-06T23:59:00.054Z,19.20
